TimeCDT,TemperatureF,Dew PointF,Humidity,Sea Level PressureIn,VisibilityMPH,Wind Direction,Wind SpeedMPH,Gust SpeedMPH,PrecipitationIn,Events,Conditions,WindDirDegrees,DateUTC
12:15 AM,67.1,58.8,75,29.95,10.0,South,5.8,-,N/A,,Overcast,170,2013-08-02 05:15:00
12:35 AM,67.6,59.0,74,29.94,10.0,South,5.8,-,N/A,,Overcast,170,2013-08-02 05:35:00
1:15 AM,69.1,58.1,68,29.93,10.0,South,8.1,-,N/A,,Overcast,170,2013-08-02 06:15:00
1:35 AM,68.9,57.9,68,29.92,10.0,South,9.2,-,N/A,,Mostly Cloudy,190,2013-08-02 06:35:00
1:55 AM,67.8,57.6,70,29.92,10.0,South,6.9,-,N/A,,Scattered Clouds,190,2013-08-02 06:55:00
2:15 AM,67.1,58.3,73,29.92,10.0,SSW,9.2,-,N/A,,Scattered Clouds,200,2013-08-02 07:15:00
2:35 AM,66.6,58.6,76,29.91,10.0,SSW,9.2,-,N/A,,Clear,200,2013-08-02 07:35:00
2:55 AM,67.5,59.2,75,29.91,10.0,SSW,8.1,-,N/A,,Scattered Clouds,200,2013-08-02 07:55:00
3:15 AM,67.5,59.4,75,29.91,10.0,SSW,8.1,-,N/A,,Scattered Clouds,210,2013-08-02 08:15:00
3:35 AM,67.3,59.5,76,29.91,10.0,SSW,8.1,-,N/A,,Scattered Clouds,210,2013-08-02 08:35:00
3:55 AM,67.1,59.7,77,29.90,10.0,SSW,8.1,-,N/A,,Scattered Clouds,210,2013-08-02 08:55:00
4:15 AM,67.5,59.9,77,29.90,10.0,SW,8.1,-,N/A,,Mostly Cloudy,220,2013-08-02 09:15:00
4:35 AM,68.0,60.1,76,29.91,10.0,SW,8.1,-,N/A,,Overcast,230,2013-08-02 09:35:00
4:55 AM,68.9,60.8,75,29.90,10.0,SW,9.2,-,N/A,,Overcast,230,2013-08-02 09:55:00
5:35 AM,69.8,61.0,73,29.89,10.0,SW,11.5,-,N/A,,Overcast,220,2013-08-02 10:35:00
5:55 AM,69.6,61.2,74,29.89,10.0,SW,11.5,-,N/A,,Mostly Cloudy,230,2013-08-02 10:55:00
6:15 AM,70.0,61.3,74,29.89,10.0,SW,12.7,-,N/A,,Mostly Cloudy,220,2013-08-02 11:15:00
6:35 AM,70.2,61.7,74,29.89,10.0,SW,12.7,-,N/A,,Mostly Cloudy,230,2013-08-02 11:35:00
6:55 AM,69.3,62.4,79,29.91,5.0,West,13.8,19.6,0.05,Rain,Heavy Rain,260,2013-08-02 11:55:00
7:15 AM,67.1,63.3,88,29.91,5.0,WNW,5.8,-,0.04,Rain-Thunderstorm,Thunderstorms and Rain,290,2013-08-02 12:15:00
7:35 AM,67.3,64.4,90,29.91,10.0,Calm,Calm,-,0.05,,Overcast,0,2013-08-02 12:35:00
7:55 AM,67.8,64.9,90,29.91,10.0,Calm,Calm,-,0.05,,Overcast,0,2013-08-02 12:55:00
8:15 AM,69.1,65.1,87,29.90,10.0,SW,5.8,-,N/A,,Mostly Cloudy,220,2013-08-02 13:15:00
8:35 AM,70.3,65.3,84,29.91,10.0,West,6.9,-,N/A,,Overcast,270,2013-08-02 13:35:00
8:55 AM,71.6,65.7,81,29.90,10.0,WSW,5.8,-,N/A,,Scattered Clouds,250,2013-08-02 13:55:00
9:15 AM,72.9,66.4,80,29.91,1.0,WSW,8.1,-,N/A,,Haze,250,2013-08-02 14:15:00
9:55 AM,75.6,67.3,75,29.90,10.0,West,11.5,17.3,N/A,,Clear,260,2013-08-02 14:55:00
10:15 AM,76.8,68.4,75,29.90,10.0,West,9.2,17.3,N/A,,Clear,270,2013-08-02 15:15:00
10:35 AM,77.9,68.0,71,29.90,10.0,West,9.2,-,N/A,,Scattered Clouds,280,2013-08-02 15:35:00
10:55 AM,78.4,67.1,68,29.90,10.0,West,9.2,-,N/A,,Scattered Clouds,270,2013-08-02 15:55:00
11:15 AM,80.2,67.6,65,29.90,10.0,West,9.2,-,N/A,,Clear,280,2013-08-02 16:15:00
11:35 AM,80.6,67.1,63,29.90,10.0,WSW,8.1,16.1,N/A,,Clear,250,2013-08-02 16:35:00
11:55 AM,81.7,66.7,60,29.90,10.0,WSW,13.8,17.3,N/A,,Clear,250,2013-08-02 16:55:00
12:15 PM,81.7,65.5,58,29.90,10.0,West,13.8,19.6,N/A,,Clear,260,2013-08-02 17:15:00
12:35 PM,82.8,66.4,58,29.89,10.0,West,11.5,17.3,N/A,,Clear,260,2013-08-02 17:35:00
12:55 PM,81.9,65.8,58,29.90,10.0,WSW,10.4,16.1,N/A,,Scattered Clouds,240,2013-08-02 17:55:00
1:15 PM,82.2,66.6,59,29.90,10.0,West,9.2,-,N/A,,Mostly Cloudy,260,2013-08-02 18:15:00
1:35 PM,82.4,66.0,57,29.90,10.0,West,11.5,17.3,N/A,,Mostly Cloudy,280,2013-08-02 18:35:00
2:15 PM,84.2,66.4,55,29.89,10.0,WSW,10.4,13.8,N/A,,Mostly Cloudy,250,2013-08-02 19:15:00
2:35 PM,81.9,66.6,60,29.89,10.0,WSW,10.4,18.4,N/A,,Overcast,250,2013-08-02 19:35:00
2:55 PM,82.9,66.7,58,29.88,10.0,West,8.1,-,N/A,,Overcast,260,2013-08-02 19:55:00
3:15 PM,83.3,67.8,59,29.89,10.0,WSW,12.7,-,N/A,,Mostly Cloudy,250,2013-08-02 20:15:00
3:35 PM,81.1,67.1,62,29.88,10.0,West,10.4,-,N/A,,Mostly Cloudy,260,2013-08-02 20:35:00
3:55 PM,74.3,70.3,87,29.90,2.0,Calm,Calm,-,0.14,Rain,Light Rain,0,2013-08-02 20:55:00
4:15 PM,76.3,69.8,80,29.88,10.0,Calm,Calm,-,N/A,,Scattered Clouds,0,2013-08-02 21:15:00
4:35 PM,78.8,69.1,72,29.88,10.0,Calm,Calm,-,N/A,,Scattered Clouds,0,2013-08-02 21:35:00
4:55 PM,78.8,70.0,74,29.88,10.0,Calm,Calm,-,N/A,,Mostly Cloudy,0,2013-08-02 21:55:00
5:15 PM,78.8,70.2,75,29.88,10.0,Calm,Calm,-,N/A,,Overcast,0,2013-08-02 22:15:00
5:35 PM,80.2,71.2,74,29.88,10.0,West,4.6,-,N/A,Rain,Light Rain,270,2013-08-02 22:35:00
5:55 PM,81.0,69.8,69,29.88,10.0,West,12.7,-,N/A,,Mostly Cloudy,270,2013-08-02 22:55:00
6:15 PM,79.2,68.9,71,29.88,10.0,West,5.8,-,N/A,,Scattered Clouds,260,2013-08-02 23:15:00
6:35 PM,78.1,68.9,73,29.88,10.0,West,5.8,-,N/A,Rain,Light Rain,270,2013-08-02 23:35:00
6:55 PM,77.9,69.3,75,29.88,10.0,West,5.8,-,N/A,,Scattered Clouds,280,2013-08-02 23:55:00
7:15 PM,77.2,69.4,77,29.88,10.0,NW,10.4,-,N/A,Rain,Rain,310,2013-08-03 00:15:00
7:35 PM,74.8,69.8,84,29.90,10.0,NW,10.4,-,0.01,Rain,Light Rain,320,2013-08-03 00:35:00
7:55 PM,73.6,68.7,85,29.90,10.0,North,11.5,-,0.02,Rain,Light Rain,360,2013-08-03 00:55:00
8:15 PM,72.3,68.9,89,29.91,4.0,NNW,19.6,25.3,0.06,Rain,Heavy Rain,330,2013-08-03 01:15:00
8:35 PM,71.1,67.6,89,29.92,5.0,NW,15.0,-,0.14,Rain,Light Rain,310,2013-08-03 01:35:00
8:55 PM,70.9,68.0,91,29.92,10.0,NW,11.5,-,0.15,Rain,Light Rain,310,2013-08-03 01:55:00
9:15 PM,71.6,66.6,84,29.92,10.0,North,9.2,-,N/A,,Mostly Cloudy,360,2013-08-03 02:15:00
9:35 PM,70.7,66.2,86,29.93,10.0,NNW,8.1,-,N/A,,Scattered Clouds,340,2013-08-03 02:35:00
9:55 PM,71.1,66.2,85,29.94,10.0,NNW,3.5,-,N/A,Thunderstorm,Mostly Cloudy,330,2013-08-03 02:55:00
10:15 PM,70.7,65.8,85,29.96,10.0,NNW,4.6,-,N/A,,Overcast,340,2013-08-03 03:15:00
10:35 PM,70.2,64.9,83,29.96,10.0,North,4.6,-,N/A,,Mostly Cloudy,350,2013-08-03 03:35:00
10:55 PM,70.0,63.7,80,29.96,10.0,North,6.9,-,N/A,Rain,Light Rain,350,2013-08-03 03:55:00
11:15 PM,69.4,63.0,80,29.96,10.0,North,5.8,-,N/A,Rain,Light Rain,360,2013-08-03 04:15:00
11:35 PM,69.1,62.8,80,29.97,10.0,North,6.9,-,N/A,Rain,Rain,350,2013-08-03 04:35:00
11:55 PM,69.1,63.3,82,29.97,10.0,NNE,4.6,-,N/A,,Overcast,20,2013-08-03 04:55:00